Terminal Aerodrome Forecast
Issued by NWS

Home | Current Version | Previous Version | Graphics & Text | Print | Product List | Glossary On
Versions: 1 2 3 4 5 6 7 8 9 10 11 12 13 14 15
000
FTUS43 KABR 221128
TAFATY
TAF
KATY 221128Z 2212/2312 14006KT P6SM SKC
     FM222100 17007KT P6SM FEW050 BKN090
     FM230900 17006KT P6SM VCSH SCT035 BKN050 OVC070=

USA.gov is the U.S. government's official web portal to all federal, state and local government web resources and services.